Time;durP1;ratioP1;P1;durP2;ratioP2;P2;SDS_P1;SDS_P2;PMS_P1;PMS_P2;Temp;Humidity;BMP_temperature;BMP_pressure;BME280_temperature;BME280_humidity;BME280_pressure;Samples;Min_cycle;Max_cycle;Signal;HPM_P1;HPM_P2
2023/10/09 00:03:06;;;;;;;9.95;3.17;;;13.00;99.90;;;;;;4916105;29;20052;-92
2023/10/09 00:08:04;;;;;;;13.23;4.13;;;13.30;99.90;;;;;;4916328;29;20071;-90
2023/10/09 00:10:44;;;;;;;12.70;3.67;;;13.10;99.90;;;;;;4915189;29;20052;-90
2023/10/09 00:13:10;;;;;;;10.85;4.05;;;13.30;99.90;;;;;;4914852;29;20131;-92
2023/10/09 00:15:36;;;;;;;11.35;4.43;;;13.20;99.90;;;;;;4916067;29;20136;-92
2023/10/09 00:18:05;;;;;;;11.85;4.10;;;13.10;99.90;;;;;;4915779;29;20108;-92
2023/10/09 00:20:54;;;;;;;15.82;5.07;;;13.20;99.90;;;;;;4914535;29;20055;-92
2023/10/09 00:23:34;;;;;;;13.23;4.72;;;13.20;99.90;;;;;;4915773;29;20056;-92
2023/10/09 00:26:11;;;;;;;13.35;5.05;;;13.20;99.90;;;;;;4914714;29;20052;-91
2023/10/09 00:28:38;;;;;;;12.63;4.95;;;13.40;99.90;;;;;;4915616;29;20048;-91
2023/10/09 00:31:07;;;;;;;14.85;5.30;;;13.20;99.90;;;;;;4915721;29;20051;-92
2023/10/09 00:33:34;;;;;;;14.75;5.43;;;13.20;99.90;;;;;;4914711;29;20047;-91
2023/10/09 00:36:09;;;;;;;13.27;4.95;;;13.20;99.90;;;;;;4915699;29;20048;-91
2023/10/09 00:38:35;;;;;;;17.13;5.40;;;13.20;99.90;;;;;;4915624;29;20056;-92
2023/10/09 00:41:10;;;;;;;16.90;6.47;;;13.20;99.90;;;;;;4914893;29;20050;-91
2023/10/09 00:43:52;;;;;;;19.00;6.15;;;13.20;99.90;;;;;;4915737;29;20514;-92
2023/10/09 00:46:30;;;;;;;13.98;5.93;;;13.60;99.90;;;;;;4915390;29;20172;-91
2023/10/09 00:49:02;;;;;;;15.60;6.28;;;12.80;99.90;;;;;;4914566;29;20052;-91
2023/10/09 00:51:56;;;;;;;14.35;6.47;;;13.20;99.90;;;;;;4915713;29;20071;-92
2023/10/09 00:54:40;;;;;;;16.85;7.07;;;13.20;99.90;;;;;;4914634;29;20129;-90
2023/10/09 00:57:13;;;;;;;20.20;8.02;;;13.20;99.90;;;;;;4917912;29;20507;-89
2023/10/09 01:00:32;;;;;;;21.17;7.90;;;12.50;99.90;;;;;;4917036;29;20526;-92
2023/10/09 01:03:22;;;;;;;20.88;8.63;;;13.20;99.90;;;;;;4913141;29;20148;-90
2023/10/09 01:11:09;;;;;;;21.48;10.27;;;13.60;99.90;;;;;;4896213;29;20056;-92
2023/10/09 01:16:17;;;;;;;23.23;10.55;;;13.80;99.90;;;;;;4895722;29;20143;-91
2023/10/09 01:18:50;;;;;;;23.73;10.68;;;13.20;99.90;;;;;;4880801;29;20187;-91
2023/10/09 01:21:17;;;;;;;23.48;11.13;;;13.40;99.90;;;;;;4880704;29;20049;-90
2023/10/09 01:24:02;;;;;;;23.05;11.80;;;13.20;99.90;;;;;;4879791;29;20136;-92
2023/10/09 01:26:47;;;;;;;25.70;11.25;;;13.30;99.90;;;;;;4880062;29;20064;-91
2023/10/09 01:29:30;;;;;;;24.85;11.45;;;13.30;99.90;;;;;;4879080;29;20037;-90
2023/10/09 01:32:18;;;;;;;21.98;11.70;;;13.30;99.90;;;;;;4880592;29;20048;-91
2023/10/09 01:34:45;;;;;;;25.58;11.95;;;13.60;99.90;;;;;;4885359;29;20638;-91
2023/10/09 01:37:18;;;;;;;28.88;12.20;;;14.10;99.90;;;;;;4883120;29;20059;-91
2023/10/09 01:40:24;;;;;;;24.20;11.77;;;13.30;99.90;;;;;;4884119;29;20067;-92
2023/10/09 01:42:51;;;;;;;25.08;12.30;;;13.20;99.90;;;;;;4885690;29;20512;-91
2023/10/09 01:47:51;;;;;;;28.98;12.80;;;13.20;99.90;;;;;;4884302;29;20548;-92
2023/10/09 01:50:35;;;;;;;27.27;12.45;;;13.20;99.90;;;;;;4882838;29;20055;-91
2023/10/09 01:53:02;;;;;;;28.77;13.80;;;13.20;99.90;;;;;;4884172;29;20045;-92
2023/10/09 01:55:45;;;;;;;31.48;13.13;;;13.20;99.90;;;;;;4883921;29;20131;-92
2023/10/09 02:00:54;;;;;;;27.05;12.85;;;13.20;99.90;;;;;;4883119;29;20052;-92
2023/10/09 02:03:23;;;;;;;28.67;13.75;;;13.20;99.90;;;;;;4883465;29;20111;-91
2023/10/09 02:06:03;;;;;;;30.33;14.13;;;13.20;99.90;;;;;;4917625;29;20040;-91
2023/10/09 02:08:29;;;;;;;28.50;14.00;;;13.70;99.90;;;;;;4917881;29;20068;-91
2023/10/09 02:10:56;;;;;;;32.28;13.57;;;13.20;99.90;;;;;;4920337;29;20100;-91
2023/10/09 02:13:34;;;;;;;30.50;13.00;;;13.10;99.90;;;;;;4925308;29;20504;-90
2023/10/09 02:16:14;;;;;;;29.48;14.75;;;13.20;99.90;;;;;;4926183;29;20126;-91
2023/10/09 02:18:39;;;;;;;30.95;14.63;;;13.30;99.90;;;;;;4920683;29;20048;-92
2023/10/09 02:23:40;;;;;;;30.98;14.20;;;14.00;99.90;;;;;;4917569;29;20048;-91
2023/10/09 02:26:22;;;;;;;29.58;13.98;;;13.40;99.90;;;;;;4919314;29;20506;-91
2023/10/09 02:29:14;;;;;;;32.53;14.23;;;13.20;99.90;;;;;;4917675;29;20489;-91
2023/10/09 02:31:40;;;;;;;35.22;15.02;;;13.20;99.90;;;;;;4925426;29;20048;-91
2023/10/09 02:34:12;;;;;;;29.08;14.23;;;13.20;99.90;;;;;;4917589;29;20052;-92
2023/10/09 02:36:42;;;;;;;30.88;14.82;;;13.20;99.90;;;;;;4917483;29;20187;-91
2023/10/09 02:39:22;;;;;;;29.88;14.68;;;13.20;99.90;;;;;;4917575;29;20496;-92
2023/10/09 02:41:55;;;;;;;32.45;15.60;;;13.20;99.90;;;;;;4916946;29;20138;-92
2023/10/09 02:44:31;;;;;;;28.52;14.52;;;13.20;99.90;;;;;;4917443;29;20047;-91
2023/10/09 02:46:58;;;;;;;36.67;16.30;;;13.90;99.90;;;;;;4916883;29;20056;-92
2023/10/09 02:49:26;;;;;;;33.40;14.77;;;13.20;99.90;;;;;;4917067;29;20126;-92
2023/10/09 02:51:54;;;;;;;35.40;16.38;;;13.20;99.90;;;;;;4917417;29;20052;-92
2023/10/09 02:57:06;;;;;;;33.40;16.17;;;13.30;99.90;;;;;;4917588;29;20384;-91
2023/10/09 02:59:31;;;;;;;35.57;15.83;;;14.20;99.90;;;;;;4917206;29;20072;-92
2023/10/09 03:02:12;;;;;;;35.30;16.88;;;13.20;99.90;;;;;;4916889;29;20051;-91
2023/10/09 03:04:41;;;;;;;33.05;16.27;;;13.20;99.90;;;;;;4916886;29;20403;-92
2023/10/09 03:07:13;;;;;;;35.92;17.67;;;14.10;99.90;;;;;;4916983;29;20094;-91
2023/10/09 03:09:44;;;;;;;37.55;18.15;;;13.20;99.90;;;;;;4916275;29;20044;-91
2023/10/09 03:12:11;;;;;;;33.40;17.60;;;13.20;99.90;;;;;;4919747;29;20048;-91
2023/10/09 03:14:43;;;;;;;39.85;17.65;;;13.30;99.90;;;;;;4918306;29;20036;-91
2023/10/09 03:17:11;;;;;;;39.33;17.48;;;13.10;99.90;;;;;;4916260;29;20044;-91
2023/10/09 03:19:37;;;;;;;39.88;19.02;;;14.10;99.90;;;;;;4920261;29;20051;-91
2023/10/09 03:22:17;;;;;;;39.67;18.52;;;13.30;99.90;;;;;;4916753;29;20793;-91
2023/10/09 03:24:44;;;;;;;38.30;18.75;;;13.30;99.90;;;;;;4917429;29;20051;-91
2023/10/09 03:27:11;;;;;;;38.13;19.33;;;13.30;99.90;;;;;;4918553;29;20055;-91
2023/10/09 03:29:37;;;;;;;42.05;18.83;;;13.30;99.90;;;;;;4917203;29;20508;-91
2023/10/09 03:32:03;;;;;;;38.40;18.05;;;14.30;99.90;;;;;;4916727;29;20055;-91
2023/10/09 03:34:30;;;;;;;37.72;18.15;;;13.30;99.90;;;;;;4916100;29;20381;-90
2023/10/09 03:37:06;;;;;;;42.67;20.00;;;13.40;99.90;;;;;;4915624;29;20048;-91
2023/10/09 03:39:41;;;;;;;38.67;19.42;;;14.00;99.90;;;;;;4916593;29;20048;-91
2023/10/09 03:42:11;;;;;;;40.95;20.42;;;13.40;99.90;;;;;;4916622;29;20522;-91
2023/10/09 03:44:41;;;;;;;42.58;20.42;;;13.40;99.90;;;;;;4915750;29;20507;-91
2023/10/09 03:47:10;;;;;;;41.63;20.25;;;14.00;99.90;;;;;;4916090;29;20219;-91
2023/10/09 03:49:39;;;;;;;43.97;21.15;;;13.50;99.90;;;;;;4916000;29;20099;-91
2023/10/09 03:52:06;;;;;;;47.17;21.85;;;13.60;99.90;;;;;;4915635;29;20059;-91
2023/10/09 03:54:34;;;;;;;45.05;21.15;;;13.70;99.90;;;;;;4918601;29;20051;-91
2023/10/09 03:57:01;;;;;;;45.65;21.00;;;13.60;99.90;;;;;;4915319;29;20135;-90
2023/10/09 03:59:30;;;;;;;39.97;20.63;;;13.70;99.90;;;;;;4916022;29;20547;-91
2023/10/09 04:02:05;;;;;;;40.28;20.75;;;13.80;99.90;;;;;;4917550;29;20047;-91
2023/10/09 04:04:33;;;;;;;40.28;20.63;;;14.60;99.90;;;;;;4913569;29;20135;-90
2023/10/09 04:07:16;;;;;;;42.47;21.73;;;13.90;99.90;;;;;;4915037;29;20505;-91
2023/10/09 04:09:44;;;;;;;45.60;21.38;;;13.90;99.90;;;;;;4916095;29;20052;-91
2023/10/09 04:12:25;;;;;;;40.38;21.05;;;14.70;99.90;;;;;;4914638;29;20048;-91
2023/10/09 04:14:54;;;;;;;43.60;21.15;;;13.90;99.90;;;;;;4915899;29;20052;-92
2023/10/09 04:17:39;;;;;;;41.78;21.83;;;14.90;99.90;;;;;;4915701;29;20064;-91
2023/10/09 04:22:50;;;;;;;40.83;20.95;;;14.00;99.90;;;;;;4915723;29;20056;-91
2023/10/09 04:25:25;;;;;;;47.45;21.20;;;14.90;99.90;;;;;;4914971;29;20547;-91
2023/10/09 04:31:02;;;;;;;43.13;21.45;;;14.00;99.90;;;;;;4898076;29;20063;-92
2023/10/09 04:33:53;;;;;;;44.03;22.35;;;14.40;99.90;;;;;;4914627;29;20051;-91
2023/10/09 04:36:46;;;;;;;48.92;23.10;;;14.10;99.90;;;;;;4915283;29;20052;-91
2023/10/09 04:41:52;;;;;;;47.10;23.33;;;14.20;99.90;;;;;;4915498;29;20567;-91
2023/10/09 04:44:35;;;;;;;46.90;22.55;;;14.20;99.90;;;;;;4915441;29;20432;-91
2023/10/09 04:50:01;;;;;;;46.03;23.58;;;14.20;99.90;;;;;;4931077;29;20507;-90
2023/10/09 05:03:12;;;;;;;49.92;23.70;;;14.20;99.90;;;;;;4912982;29;20055;-90
2023/10/09 05:16:28;;;;;;;53.42;25.40;;;14.20;99.90;;;;;;4950972;29;20070;-92
2023/10/09 05:18:59;;;;;;;48.08;24.75;;;14.20;99.90;;;;;;4904163;29;20131;-91
2023/10/09 05:29:19;;;;;;;60.55;25.95;;;14.50;99.90;;;;;;4902369;29;20484;-82
2023/10/09 05:32:05;;;;;;;55.22;25.80;;;14.10;99.90;;;;;;4915114;29;20048;-83
2023/10/09 05:34:34;;;;;;;55.03;26.02;;;14.70;99.90;;;;;;4915023;29;20051;-82
2023/10/09 05:37:24;;;;;;;51.60;25.15;;;14.50;99.90;;;;;;4899246;29;20037;-82
2023/10/09 05:42:57;;;;;;;54.78;25.67;;;14.20;99.90;;;;;;4898652;29;20048;-83
2023/10/09 05:47:56;;;;;;;52.38;25.60;;;14.80;99.90;;;;;;4918255;29;20079;-83
2023/10/09 06:03:23;;;;;;;53.47;26.88;;;14.40;99.90;;;;;;4917958;29;20056;-83
2023/10/09 06:16:59;;;;;;;53.60;25.20;;;14.60;99.90;;;;;;4933529;29;20393;-83
2023/10/09 06:19:26;;;;;;;53.70;25.48;;;14.60;99.90;;;;;;4916053;29;20530;-83
2023/10/09 06:30:14;;;;;;;49.80;24.15;;;14.70;99.90;;;;;;4933092;29;20059;-83
2023/10/09 06:33:19;;;;;;;54.90;25.73;;;14.70;99.90;;;;;;4916458;29;20052;-83
2023/10/09 06:35:53;;;;;;;51.20;24.30;;;14.70;99.90;;;;;;4917687;29;20216;-82
2023/10/09 06:38:23;;;;;;;51.13;25.17;;;14.80;99.90;;;;;;4916715;29;20055;-83
2023/10/09 06:51:07;;;;;;;47.72;24.52;;;15.30;99.90;;;;;;4951494;29;20451;-83
2023/10/09 06:57:12;;;;;;;45.42;22.77;;;15.20;99.90;;;;;;4949013;29;20048;-86
2023/10/09 06:59:16;;;;;;;42.45;22.67;;;15.60;99.90;;;;;;4910671;29;20044;-83
2023/10/09 07:01:47;;;;;;;44.60;21.92;;;15.20;99.90;;;;;;4916088;29;20044;-83
2023/10/09 07:04:19;;;;;;;35.28;19.42;;;15.30;99.90;;;;;;4903250;29;20058;-83
2023/10/09 07:06:48;;;;;;;35.25;19.30;;;15.30;99.90;;;;;;4897576;29;20112;-84
2023/10/09 07:22:29;;;;;;;32.90;17.10;;;15.50;99.90;;;;;;4896612;29;20056;-84
2023/10/09 07:27:44;;;;;;;32.10;16.77;;;15.60;99.90;;;;;;4901639;29;20048;-82
2023/10/09 07:38:20;;;;;;;33.10;16.63;;;16.40;99.90;;;;;;4932082;29;20051;-82
2023/10/09 07:40:56;;;;;;;31.90;15.93;;;15.80;99.90;;;;;;4916441;29;20052;-82
2023/10/09 07:43:45;;;;;;;30.80;14.73;;;15.80;99.90;;;;;;4910623;29;20528;-81
2023/10/09 07:46:32;;;;;;;28.02;14.68;;;15.90;99.90;;;;;;4913196;29;20040;-81
2023/10/09 07:49:08;;;;;;;27.17;14.45;;;16.00;99.90;;;;;;4907060;29;20036;-81
2023/10/09 07:51:37;;;;;;;27.88;14.40;;;16.00;99.90;;;;;;4900552;29;20112;-83
2023/10/09 07:54:09;;;;;;;28.25;13.90;;;16.00;99.90;;;;;;4896719;29;20056;-81
2023/10/09 07:56:53;;;;;;;24.20;12.68;;;16.00;99.90;;;;;;4902202;29;20048;-80
2023/10/09 07:59:19;;;;;;;21.10;12.20;;;16.10;99.90;;;;;;4905565;29;20052;-80
2023/10/09 08:01:59;;;;;;;23.38;12.10;;;16.00;99.90;;;;;;4910076;29;20507;-79
2023/10/09 08:04:37;;;;;;;24.42;11.60;;;16.30;99.90;;;;;;4907606;29;20469;-80
2023/10/09 08:07:19;;;;;;;25.73;11.30;;;16.00;99.90;;;;;;4915041;29;20044;-80
2023/10/09 08:09:48;;;;;;;22.60;11.77;;;16.10;99.90;;;;;;4911881;29;20103;-80
2023/10/09 08:18:14;;;;;;;22.83;11.65;;;16.10;99.90;;;;;;4929282;29;20111;-81
2023/10/09 08:23:47;;;;;;;22.05;11.20;;;16.10;99.90;;;;;;4914619;29;20048;-80
2023/10/09 08:26:14;;;;;;;22.88;10.73;;;16.10;99.90;;;;;;4903189;29;20126;-80
2023/10/09 08:28:45;;;;;;;24.50;11.07;;;16.20;99.90;;;;;;4905912;29;20095;-80
2023/10/09 08:31:56;;;;;;;21.83;11.00;;;16.30;99.90;;;;;;4895121;29;20076;-84
2023/10/09 08:34:48;;;;;;;22.55;11.18;;;16.20;99.90;;;;;;4896294;29;20496;-81
2023/10/09 08:37:13;;;;;;;27.65;10.82;;;16.20;99.90;;;;;;4899270;29;20052;-81
2023/10/09 08:39:39;;;;;;;23.92;12.40;;;16.30;99.90;;;;;;4909502;29;20408;-83
2023/10/09 08:42:08;;;;;;;27.30;11.60;;;16.30;99.90;;;;;;4914559;29;20135;-83
2023/10/09 08:45:05;;;;;;;19.23;9.60;;;16.30;99.90;;;;;;4930441;29;20480;-83
2023/10/09 08:47:32;;;;;;;20.95;10.18;;;16.30;99.90;;;;;;4913985;29;20488;-82
2023/10/09 08:50:28;;;;;;;24.65;10.45;;;16.30;99.90;;;;;;4896433;29;20492;-84
2023/10/09 08:52:55;;;;;;;22.75;10.77;;;16.40;99.90;;;;;;4898249;29;20040;-83
2023/10/09 08:55:29;;;;;;;21.33;10.15;;;16.40;99.90;;;;;;4914257;29;20139;-84
2023/10/09 08:57:58;;;;;;;22.17;10.30;;;16.50;99.90;;;;;;4914939;29;20472;-84
2023/10/09 09:00:43;;;;;;;24.40;10.00;;;16.40;99.90;;;;;;4913854;29;20090;-83
2023/10/09 09:03:09;;;;;;;22.02;10.30;;;16.30;99.90;;;;;;4914158;29;20448;-83
2023/10/09 09:05:38;;;;;;;24.38;10.15;;;16.30;99.90;;;;;;4915381;29;20052;-82
2023/10/09 09:08:25;;;;;;;22.73;10.57;;;16.30;99.90;;;;;;4898114;29;20496;-81
2023/10/09 09:11:05;;;;;;;25.13;10.18;;;16.40;99.90;;;;;;4899019;29;20381;-81
2023/10/09 09:13:31;;;;;;;26.25;9.75;;;16.30;99.90;;;;;;4897871;29;20059;-82
2023/10/09 09:16:02;;;;;;;23.50;10.43;;;16.30;99.90;;;;;;4898906;29;20040;-80
2023/10/09 09:19:00;;;;;;;20.73;9.90;;;16.20;99.90;;;;;;4898799;29;20056;-82
2023/10/09 09:21:54;;;;;;;27.35;10.80;;;16.20;99.90;;;;;;4898265;29;20091;-82
2023/10/09 09:24:39;;;;;;;24.77;10.02;;;16.20;99.90;;;;;;4915443;29;20083;-83
2023/10/09 09:27:20;;;;;;;24.75;10.70;;;16.20;99.90;;;;;;4914928;29;20052;-82
2023/10/09 09:29:53;;;;;;;24.77;9.93;;;16.20;99.90;;;;;;4898025;29;20551;-81
2023/10/09 09:32:29;;;;;;;26.87;11.47;;;16.20;99.90;;;;;;4898692;29;20492;-81
2023/10/09 09:35:01;;;;;;;26.90;10.85;;;16.20;99.90;;;;;;4881964;29;20052;-82
2023/10/09 09:37:33;;;;;;;23.65;10.82;;;16.30;99.90;;;;;;4879936;29;20056;-81
2023/10/09 09:40:01;;;;;;;23.67;11.18;;;16.10;99.90;;;;;;4912123;29;20092;-81
2023/10/09 09:42:34;;;;;;;31.38;11.77;;;16.20;99.90;;;;;;4897635;29;20099;-81
2023/10/09 09:45:02;;;;;;;26.05;12.00;;;16.10;99.90;;;;;;4898479;29;20048;-81
2023/10/09 09:47:29;;;;;;;25.17;12.13;;;16.20;99.90;;;;;;4898561;29;20441;-80
2023/10/09 09:50:11;;;;;;;26.92;12.63;;;16.20;99.90;;;;;;4894733;29;20811;-81
2023/10/09 09:52:40;;;;;;;26.50;12.40;;;16.20;99.90;;;;;;4898817;29;20047;-83
2023/10/09 09:55:14;;;;;;;26.85;12.20;;;16.20;99.90;;;;;;4901390;29;20595;-82
2023/10/09 09:57:41;;;;;;;27.35;13.27;;;16.30;99.90;;;;;;4901579;29;20048;-82
2023/10/09 10:00:27;;;;;;;25.52;12.70;;;16.20;99.90;;;;;;4902378;29;20062;-82
2023/10/09 10:03:06;;;;;;;28.77;13.23;;;16.30;99.90;;;;;;4901548;29;20595;-82
2023/10/09 10:05:33;;;;;;;30.85;12.05;;;16.30;99.90;;;;;;4900102;29;20512;-83
2023/10/09 10:08:39;;;;;;;23.85;11.73;;;16.80;99.90;;;;;;4901994;29;20052;-85
2023/10/09 10:14:58;;;;;;;30.05;12.77;;;16.50;99.90;;;;;;4781540;29;20055;-83
2023/10/09 10:17:27;;;;;;;24.80;12.65;;;16.50;99.90;;;;;;4804660;29;20053;-82
2023/10/09 10:22:47;;;;;;;26.23;11.40;;;16.70;99.90;;;;;;4865042;29;20141;-83
2023/10/09 10:25:35;;;;;;;28.25;11.45;;;16.80;99.90;;;;;;4863336;29;20041;-82
2023/10/09 10:28:42;;;;;;;26.02;10.95;;;17.00;99.90;;;;;;4879950;29;20056;-82
2023/10/09 10:31:09;;;;;;;24.63;11.13;;;16.90;99.90;;;;;;4882224;29;20049;-83
2023/10/09 10:33:56;;;;;;;21.70;10.32;;;17.10;99.90;;;;;;4883390;29;20044;-82
2023/10/09 10:36:23;;;;;;;27.02;11.57;;;17.10;99.90;;;;;;4882749;29;20053;-82
2023/10/09 10:39:10;;;;;;;25.38;10.77;;;17.10;99.90;;;;;;4882268;29;20127;-82
2023/10/09 10:41:50;;;;;;;21.70;10.57;;;17.10;99.90;;;;;;4882993;29;20056;-82
2023/10/09 10:44:38;;;;;;;23.42;10.70;;;17.60;99.90;;;;;;4882391;29;20063;-82
2023/10/09 10:47:22;;;;;;;23.77;10.70;;;17.10;99.90;;;;;;4882281;29;20055;-82
2023/10/09 10:49:50;;;;;;;24.27;10.68;;;17.10;99.90;;;;;;4882814;29;20045;-82
2023/10/09 10:52:35;;;;;;;28.17;10.30;;;17.00;99.90;;;;;;4881692;29;20036;-82
2023/10/09 10:58:10;;;;;;;26.00;9.52;;;17.10;99.90;;;;;;4898050;29;20417;-82
2023/10/09 11:04:12;;;;;;;24.42;10.70;;;17.40;99.90;;;;;;4897974;29;20560;-82
2023/10/09 11:06:15;;;;;;;20.42;9.63;;;17.20;99.90;;;;;;4914189;29;20048;-82
2023/10/09 11:09:08;;;;;;;24.60;9.52;;;17.30;99.90;;;;;;4916975;29;20052;-82
2023/10/09 11:11:41;;;;;;;23.17;9.52;;;17.70;99.90;;;;;;4916694;29;20051;-82
2023/10/09 11:14:42;;;;;;;21.73;8.70;;;17.30;99.90;;;;;;4916122;29;20060;-81
2023/10/09 11:17:32;;;;;;;19.67;9.38;;;17.30;99.90;;;;;;4914322;29;20075;-82
2023/10/09 11:25:50;;;;;;;20.73;9.00;;;17.20;99.90;;;;;;4916352;29;20071;-82
2023/10/09 11:28:31;;;;;;;19.85;8.38;;;17.10;99.90;;;;;;4917051;29;20452;-82
2023/10/09 11:31:12;;;;;;;18.67;8.98;;;17.10;99.90;;;;;;4916319;29;20504;-82
2023/10/09 11:33:45;;;;;;;20.80;8.68;;;17.00;99.90;;;;;;4917623;29;20500;-82
2023/10/09 11:36:11;;;;;;;21.77;8.27;;;17.00;99.90;;;;;;4915532;29;20051;-82
2023/10/09 11:38:38;;;;;;;23.10;8.38;;;17.00;99.90;;;;;;4915928;29;20052;-82
2023/10/09 11:41:24;;;;;;;22.05;8.88;;;17.00;99.90;;;;;;4914479;29;20058;-82
2023/10/09 11:43:51;;;;;;;18.15;8.60;;;17.00;99.90;;;;;;4917533;29;20051;-82
2023/10/09 11:46:37;;;;;;;19.85;8.80;;;17.00;99.90;;;;;;4916011;29;20052;-82
2023/10/09 11:49:44;;;;;;;21.98;8.93;;;17.00;99.90;;;;;;4915682;29;20052;-81
2023/10/09 11:54:35;;;;;;;23.98;8.70;;;17.00;99.90;;;;;;4915989;29;20056;-82
2023/10/09 11:57:02;;;;;;;19.25;8.70;;;17.00;99.90;;;;;;4915611;29;20444;-82
2023/10/09 11:59:34;;;;;;;19.45;8.60;;;17.00;99.90;;;;;;4915644;29;20155;-82
2023/10/09 12:02:03;;;;;;;19.70;8.13;;;17.10;99.90;;;;;;4916097;29;20052;-82
2023/10/09 12:04:32;;;;;;;21.90;9.23;;;17.10;99.90;;;;;;4914658;29;20551;-82
2023/10/09 12:07:54;;;;;;;19.55;8.77;;;17.40;99.90;;;;;;4916199;29;20457;-82
2023/10/09 12:10:38;;;;;;;20.10;8.15;;;17.10;99.90;;;;;;4914259;29;20100;-81
2023/10/09 12:13:16;;;;;;;19.05;8.05;;;17.10;99.90;;;;;;4915880;29;20040;-81
2023/10/09 12:15:46;;;;;;;16.70;8.23;;;17.20;99.90;;;;;;4912806;29;20040;-81
2023/10/09 12:18:14;;;;;;;17.75;7.18;;;17.20;99.90;;;;;;4896006;29;20076;-82
2023/10/09 12:20:42;;;;;;;18.98;8.27;;;17.30;99.90;;;;;;4896764;29;20132;-81
2023/10/09 12:23:08;;;;;;;22.08;8.18;;;17.40;99.90;;;;;;4896465;29;20107;-81
2023/10/09 12:25:35;;;;;;;20.92;7.68;;;17.40;99.90;;;;;;4905504;29;20097;-81
2023/10/09 12:28:03;;;;;;;17.75;7.70;;;17.50;99.90;;;;;;4915701;29;20062;-81
2023/10/09 12:30:30;;;;;;;17.42;7.32;;;17.40;99.90;;;;;;4914548;29;20123;-81
2023/10/09 12:32:58;;;;;;;15.02;6.50;;;17.40;99.90;;;;;;4915647;29;20460;-81
2023/10/09 12:35:25;;;;;;;15.45;7.10;;;17.40;99.90;;;;;;4915139;29;20519;-81
2023/10/09 12:37:54;;;;;;;15.75;6.68;;;17.40;99.90;;;;;;4914860;29;20040;-82
2023/10/09 12:40:24;;;;;;;17.33;6.43;;;17.50;99.90;;;;;;4907107;29;20386;-81
2023/10/09 12:42:53;;;;;;;13.90;6.35;;;17.50;99.90;;;;;;4896410;29;20064;-81
2023/10/09 12:45:31;;;;;;;16.10;6.20;;;17.60;99.90;;;;;;4897004;29;20119;-81
2023/10/09 12:48:03;;;;;;;15.05;6.00;;;17.60;99.90;;;;;;4896424;29;20051;-81
2023/10/09 12:50:41;;;;;;;17.40;6.50;;;17.60;99.90;;;;;;4896243;29;20394;-81
2023/10/09 12:53:08;;;;;;;15.73;6.45;;;17.70;99.90;;;;;;4895727;29;20140;-81
2023/10/09 12:55:43;;;;;;;18.48;5.82;;;17.90;99.90;;;;;;4896116;29;20084;-82
2023/10/09 12:58:14;;;;;;;16.25;5.75;;;18.00;99.90;;;;;;4897362;29;20044;-82
2023/10/09 13:00:44;;;;;;;15.88;6.00;;;18.20;99.90;;;;;;4895994;29;20067;-82
2023/10/09 13:03:16;;;;;;;16.60;5.30;;;18.50;99.90;;;;;;4895883;29;20076;-81
2023/10/09 13:06:03;;;;;;;14.55;5.70;;;19.00;99.90;;;;;;4895343;29;20056;-82
2023/10/09 13:08:34;;;;;;;15.50;5.63;;;19.50;99.90;;;;;;4896202;29;20044;-82
2023/10/09 13:11:11;;;;;;;14.73;5.50;;;19.40;99.90;;;;;;4908577;29;20059;-81
2023/10/09 13:13:41;;;;;;;14.18;5.57;;;19.20;99.90;;;;;;4914269;29;20044;-82
2023/10/09 13:16:11;;;;;;;14.25;5.10;;;18.90;99.90;;;;;;4915173;29;20060;-81
2023/10/09 13:18:41;;;;;;;13.23;4.90;;;18.70;99.90;;;;;;4914901;29;20068;-81
2023/10/09 13:21:07;;;;;;;11.50;4.70;;;18.60;99.90;;;;;;4914154;29;20052;-81
2023/10/09 13:23:39;;;;;;;15.82;5.45;;;18.40;99.90;;;;;;4915552;29;20063;-81
2023/10/09 13:28:52;;;;;;;9.70;4.40;;;18.40;99.90;;;;;;4916127;29;20411;-81
2023/10/09 13:31:20;;;;;;;14.27;5.13;;;18.30;99.90;;;;;;4918215;29;20526;-81
2023/10/09 13:33:47;;;;;;;10.80;4.60;;;18.20;99.90;;;;;;4918093;29;20083;-81
2023/10/09 13:36:19;;;;;;;14.38;4.80;;;18.10;99.90;;;;;;4919681;29;20044;-81
2023/10/09 13:38:45;;;;;;;12.65;5.25;;;18.10;99.90;;;;;;4918523;29;20052;-81
2023/10/09 13:41:12;;;;;;;13.48;5.32;;;18.00;99.90;;;;;;4917552;29;20052;-81
2023/10/09 13:43:42;;;;;;;11.15;4.45;;;18.10;99.90;;;;;;4918425;29;20052;-81
2023/10/09 13:46:12;;;;;;;13.68;4.90;;;18.00;99.90;;;;;;4917932;29;20076;-81
2023/10/09 13:48:41;;;;;;;14.88;4.70;;;18.10;99.90;;;;;;4917820;29;20040;-81
2023/10/09 13:51:23;;;;;;;13.27;4.70;;;18.10;99.90;;;;;;4918247;29;20055;-81
2023/10/09 13:53:49;;;;;;;14.52;4.72;;;18.20;99.90;;;;;;4919565;29;20052;-81
2023/10/09 13:56:20;;;;;;;12.18;4.45;;;18.30;99.90;;;;;;4917059;29;20044;-80
2023/10/09 13:58:50;;;;;;;11.75;4.40;;;18.40;99.90;;;;;;4919318;29;20496;-81
2023/10/09 14:01:32;;;;;;;12.45;4.18;;;18.50;99.90;;;;;;4917775;29;20079;-81
2023/10/09 14:03:59;;;;;;;9.73;3.53;;;18.60;99.90;;;;;;4916922;29;20523;-81
2023/10/09 14:06:32;;;;;;;10.75;3.83;;;18.60;99.90;;;;;;4917644;29;20059;-81
2023/10/09 14:09:04;;;;;;;13.07;3.80;;;18.60;99.90;;;;;;4917782;29;20059;-82
2023/10/09 14:11:37;;;;;;;10.60;3.80;;;18.60;99.90;;;;;;4902219;29;20100;-81
2023/10/09 14:14:09;;;;;;;12.50;3.50;;;18.40;99.90;;;;;;4900267;29;20481;-81
2023/10/09 14:16:35;;;;;;;13.82;3.80;;;18.40;99.90;;;;;;4898455;29;20063;-81
2023/10/09 14:19:06;;;;;;;12.13;3.88;;;18.40;99.90;;;;;;4914864;29;20056;-81
2023/10/09 14:21:37;;;;;;;12.82;3.80;;;18.40;99.90;;;;;;4898528;29;20499;-81
2023/10/09 14:24:15;;;;;;;10.38;3.95;;;18.30;99.90;;;;;;4898197;29;20517;-81
2023/10/09 14:26:42;;;;;;;12.85;3.38;;;18.40;99.90;;;;;;4898919;29;20453;-81
2023/10/09 14:29:16;;;;;;;12.05;3.97;;;18.30;99.90;;;;;;4898715;29;20075;-81
2023/10/09 14:31:49;;;;;;;11.30;3.42;;;18.40;99.90;;;;;;4899394;29;20051;-81
2023/10/09 14:34:15;;;;;;;12.35;3.33;;;18.40;99.90;;;;;;4898368;29;20104;-81
2023/10/09 14:36:43;;;;;;;11.40;3.53;;;18.40;99.90;;;;;;4898604;29;20052;-81
2023/10/09 14:39:13;;;;;;;11.38;3.58;;;18.40;99.90;;;;;;4897153;29;20048;-81
2023/10/09 14:41:40;;;;;;;11.98;3.40;;;18.40;99.90;;;;;;4898579;29;20062;-81
2023/10/09 14:44:06;;;;;;;10.68;3.50;;;18.30;99.90;;;;;;4897618;29;20457;-81
2023/10/09 14:46:31;;;;;;;10.65;3.05;;;18.30;99.90;;;;;;4897810;29;20053;-81
2023/10/09 14:48:57;;;;;;;10.40;3.15;;;18.20;99.90;;;;;;4898347;29;20083;-81
2023/10/09 14:51:27;;;;;;;11.05;3.33;;;18.20;99.90;;;;;;4897233;29;20135;-82
2023/10/09 14:53:57;;;;;;;13.80;3.30;;;18.10;99.90;;;;;;4898018;29;20048;-81
2023/10/09 14:56:28;;;;;;;8.88;3.20;;;18.00;99.90;;;;;;4897772;29;20044;-81
2023/10/09 14:58:58;;;;;;;11.80;3.67;;;17.90;99.90;;;;;;4897448;29;20131;-82
2023/10/09 15:01:29;;;;;;;13.70;3.72;;;17.90;99.90;;;;;;4898047;29;20076;-82
2023/10/09 15:04:03;;;;;;;11.55;3.75;;;17.90;99.90;;;;;;4897645;29;20123;-81
2023/10/09 15:06:30;;;;;;;12.63;3.45;;;17.80;99.90;;;;;;4902198;29;20097;-80
2023/10/09 15:09:08;;;;;;;10.45;3.47;;;17.80;99.90;;;;;;4908633;29;20044;-80
2023/10/09 15:11:33;;;;;;;10.40;3.35;;;17.80;99.90;;;;;;4916709;29;20504;-80
2023/10/09 15:13:59;;;;;;;12.07;3.40;;;17.80;99.90;;;;;;4910660;29;20040;-81
2023/10/09 15:16:30;;;;;;;10.38;3.65;;;17.80;99.90;;;;;;4909318;29;20059;-80
2023/10/09 15:19:02;;;;;;;12.23;3.72;;;17.80;99.90;;;;;;4912663;29;20112;-80
2023/10/09 15:21:28;;;;;;;11.60;3.40;;;17.70;99.90;;;;;;4909203;29;20112;-80
2023/10/09 15:23:57;;;;;;;11.80;3.58;;;17.60;99.90;;;;;;4914265;29;20044;-80
2023/10/09 15:26:24;;;;;;;10.65;3.45;;;17.60;99.90;;;;;;4909672;29;20499;-80
2023/10/09 15:28:53;;;;;;;10.55;3.63;;;17.60;99.90;;;;;;4904596;29;20514;-80
2023/10/09 15:31:21;;;;;;;10.52;3.65;;;18.20;99.90;;;;;;4913565;29;20111;-80
2023/10/09 15:33:51;;;;;;;10.63;3.17;;;17.50;99.90;;;;;;4913919;29;20040;-80
2023/10/09 15:36:18;;;;;;;10.70;3.58;;;17.50;99.90;;;;;;4914919;29;20063;-81
2023/10/09 15:38:43;;;;;;;13.38;3.83;;;17.40;99.90;;;;;;4905215;29;20056;-79
2023/10/09 15:41:09;;;;;;;11.80;3.97;;;17.40;99.90;;;;;;4913653;29;20437;-79
2023/10/09 15:43:39;;;;;;;11.32;3.83;;;17.40;99.90;;;;;;4915593;29;20147;-79
2023/10/09 15:46:15;;;;;;;11.07;3.20;;;17.40;99.90;;;;;;4913283;29;20496;-79
2023/10/09 15:48:43;;;;;;;12.70;3.97;;;17.30;99.90;;;;;;4913757;29;20444;-80
2023/10/09 15:51:14;;;;;;;14.27;4.32;;;17.30;99.90;;;;;;4912770;29;20111;-80
2023/10/09 15:53:44;;;;;;;13.70;4.10;;;17.20;99.90;;;;;;4914829;29;20048;-80
2023/10/09 15:56:13;;;;;;;13.57;4.57;;;17.20;99.90;;;;;;4915526;29;20496;-80